createdAt,value
2017-04-28T15:19:07.245Z,1760
2017-04-28T15:21:31.146Z,1672
2017-04-28T15:23:55.022Z,1696
2017-04-28T15:26:10.475Z,1680
2017-04-28T15:28:34.366Z,1468
2017-04-28T15:30:58.222Z,1300
2017-04-28T15:33:22.078Z,1196
2017-04-28T15:35:45.855Z,1060
2017-04-28T15:38:09.639Z,932
2017-04-28T15:40:33.432Z,868
2017-04-28T15:42:57.183Z,808
2017-04-28T15:47:22.195Z,724
2017-04-28T15:49:45.980Z,744
2017-04-28T15:52:09.763Z,776
2017-04-28T15:54:33.646Z,744
2017-04-28T15:56:57.428Z,724
2017-04-28T15:59:21.276Z,620
2017-04-28T16:01:31.059Z,588
2017-04-28T16:03:46.475Z,540
2017-04-28T16:08:11.550Z,480
2017-04-28T16:10:26.870Z,476
2017-04-28T16:12:50.570Z,464
2017-04-28T16:15:14.328Z,444
2017-04-28T16:17:29.624Z,440
2017-04-28T16:19:53.382Z,444
2017-04-28T16:22:17.063Z,456
2017-04-28T16:24:32.302Z,488
2017-04-28T16:26:57.021Z,528
2017-04-28T16:29:20.692Z,572
2017-04-28T16:31:44.373Z,616
2017-04-28T16:34:08.037Z,652
2017-04-28T16:36:31.840Z,684
2017-04-28T16:38:55.589Z,708
2017-04-28T16:41:19.374Z,732
2017-04-28T16:43:29.158Z,764
2017-04-28T16:45:52.919Z,828
2017-04-28T16:48:16.574Z,864
2017-04-28T16:50:40.346Z,880
2017-04-28T16:52:55.594Z,876
2017-04-28T16:55:19.291Z,904
2017-04-28T16:57:34.566Z,888
2017-04-28T17:01:45.577Z,868
2017-04-28T17:04:09.327Z,820
2017-04-28T17:06:19.587Z,820
2017-04-28T17:08:34.961Z,824
2017-04-28T17:10:59.664Z,816
2017-04-28T17:13:23.434Z,784
2017-04-28T17:15:47.195Z,740
2017-04-28T17:17:48.527Z,700
2017-04-28T17:20:04.830Z,664
2017-04-28T17:22:22.185Z,624
2017-04-28T17:24:47.887Z,600
2017-04-28T17:27:12.580Z,588
2017-04-28T17:29:38.293Z,572
2017-04-28T17:31:53.481Z,556
2017-04-28T17:35:44.481Z,524
2017-04-28T17:38:08.051Z,512
2017-04-28T17:40:24.193Z,500
2017-04-28T17:42:47.759Z,480
2017-04-28T17:44:57.469Z,460
2017-04-28T17:47:21.089Z,436
2017-04-28T17:49:37.203Z,420
2017-04-28T17:51:53.300Z,404
2017-04-28T17:54:16.808Z,384
2017-04-28T17:56:40.344Z,368
2017-04-28T17:58:55.493Z,356
2017-04-28T18:01:20.001Z,336
2017-04-28T18:03:43.578Z,324
2017-04-28T18:06:09.012Z,304
2017-04-28T18:08:33.257Z,288
2017-04-28T18:10:56.743Z,248
2017-04-28T18:13:20.337Z,244
2017-04-28T18:15:30.561Z,220
2017-04-28T18:17:55.156Z,200
2017-04-28T18:20:18.736Z,180
2017-04-28T18:24:43.539Z,144
2017-04-28T18:27:07.064Z,124
2017-04-28T18:29:30.579Z,104
2017-04-28T18:31:54.160Z,88
2017-04-28T18:34:10.354Z,72
2017-04-28T18:36:33.936Z,52
2017-04-28T18:38:57.508Z,40
2017-04-28T18:41:21.077Z,28
2017-04-28T18:43:44.808Z,16
2017-04-28T18:46:08.442Z,12
2017-04-28T18:48:32.074Z,12
2017-04-28T18:50:56.653Z,8
2017-04-28T18:53:14.194Z,4
2017-04-28T18:55:46.172Z,0
2017-04-28T18:58:15.014Z,0
2017-04-28T19:00:40.124Z,4
2017-04-28T19:03:03.643Z,0
2017-04-28T19:05:38.203Z,0
2017-04-28T19:08:11.273Z,0
2017-04-28T19:10:34.716Z,0
2017-04-28T19:13:00.942Z,0
2017-04-28T19:15:24.532Z,0
2017-04-28T19:17:50.490Z,0
2017-04-28T19:20:14.079Z,0
2017-04-28T19:22:44.198Z,0
2017-04-28T19:25:09.606Z,0
2017-04-28T19:27:34.986Z,0
2017-04-28T19:29:58.764Z,0
2017-04-28T19:32:22.322Z,0
2017-04-28T19:34:45.921Z,0
2017-04-28T19:37:09.478Z,0
2017-04-28T19:39:32.952Z,0
2017-04-28T19:41:56.522Z,0
2017-04-28T19:44:11.689Z,0
2017-04-28T19:46:21.414Z,0
2017-04-28T19:48:28.204Z,0
2017-04-28T19:51:00.316Z,0
2017-04-28T19:53:23.830Z,0
2017-04-28T19:55:47.309Z,0
2017-04-28T19:58:10.763Z,0
2017-04-28T20:00:35.296Z,0
2017-04-28T20:02:58.820Z,0
2017-04-28T20:05:22.297Z,0
2017-04-28T20:09:22.598Z,0
2017-04-28T20:11:46.094Z,0
2017-04-28T20:14:09.576Z,0
2017-04-28T20:16:33.130Z,0
2017-04-28T20:18:56.591Z,0
2017-04-28T20:21:20.097Z,0
2017-04-28T20:24:01.176Z,0
2017-04-28T20:26:26.258Z,0
2017-04-28T20:28:56.470Z,0
2017-04-28T20:32:56.739Z,0
2017-04-28T20:37:10.756Z,0
2017-04-28T20:39:49.408Z,0
